sensor_id;sensor_type;location;lat;lon;timestamp;P1;durP1;ratioP1;P2;durP2;ratioP2
55316;SDS011;41178;48.956;8.130;2023-04-24T00:02:46;2.17;;;1.80;;
55316;SDS011;41178;48.956;8.130;2023-04-24T00:07:49;3.67;;;2.00;;
55316;SDS011;41178;48.956;8.130;2023-04-24T00:12:53;3.67;;;2.30;;
55316;SDS011;41178;48.956;8.130;2023-04-24T00:17:55;2.73;;;2.27;;
55316;SDS011;41178;48.956;8.130;2023-04-24T00:22:57;3.60;;;1.90;;
55316;SDS011;41178;48.956;8.130;2023-04-24T00:27:58;2.23;;;2.03;;
55316;SDS011;41178;48.956;8.130;2023-04-24T00:33:00;2.23;;;2.00;;
55316;SDS011;41178;48.956;8.130;2023-04-24T00:38:02;2.20;;;2.00;;
55316;SDS011;41178;48.956;8.130;2023-04-24T00:43:03;1.97;;;1.70;;
55316;SDS011;41178;48.956;8.130;2023-04-24T00:48:05;3.17;;;1.87;;
55316;SDS011;41178;48.956;8.130;2023-04-24T00:53:08;2.47;;;2.27;;
55316;SDS011;41178;48.956;8.130;2023-04-24T00:58:10;2.03;;;1.93;;
55316;SDS011;41178;48.956;8.130;2023-04-24T01:03:12;2.43;;;2.23;;
55316;SDS011;41178;48.956;8.130;2023-04-24T01:08:15;2.00;;;1.90;;
55316;SDS011;41178;48.956;8.130;2023-04-24T01:13:18;2.13;;;1.93;;
55316;SDS011;41178;48.956;8.130;2023-04-24T01:18:21;1.80;;;1.60;;
55316;SDS011;41178;48.956;8.130;2023-04-24T01:23:23;2.13;;;2.00;;
55316;SDS011;41178;48.956;8.130;2023-04-24T01:28:24;2.30;;;2.07;;
55316;SDS011;41178;48.956;8.130;2023-04-24T01:33:26;2.20;;;2.10;;
55316;SDS011;41178;48.956;8.130;2023-04-24T01:38:28;2.33;;;1.80;;
55316;SDS011;41178;48.956;8.130;2023-04-24T01:43:30;2.47;;;2.03;;
55316;SDS011;41178;48.956;8.130;2023-04-24T01:48:33;2.60;;;2.27;;
55316;SDS011;41178;48.956;8.130;2023-04-24T01:53:35;3.27;;;2.80;;
55316;SDS011;41178;48.956;8.130;2023-04-24T01:58:36;2.10;;;2.00;;
55316;SDS011;41178;48.956;8.130;2023-04-24T02:03:38;2.33;;;2.13;;
55316;SDS011;41178;48.956;8.130;2023-04-24T02:08:40;2.63;;;2.43;;
55316;SDS011;41178;48.956;8.130;2023-04-24T02:13:42;2.20;;;2.00;;
55316;SDS011;41178;48.956;8.130;2023-04-24T02:18:44;2.80;;;1.80;;
55316;SDS011;41178;48.956;8.130;2023-04-24T02:23:46;2.37;;;2.17;;
55316;SDS011;41178;48.956;8.130;2023-04-24T02:28:48;2.30;;;2.07;;
55316;SDS011;41178;48.956;8.130;2023-04-24T02:33:50;3.87;;;2.10;;
55316;SDS011;41178;48.956;8.130;2023-04-24T02:38:51;2.80;;;1.90;;
55316;SDS011;41178;48.956;8.130;2023-04-24T02:43:53;3.77;;;2.70;;
55316;SDS011;41178;48.956;8.130;2023-04-24T02:48:55;2.67;;;2.47;;
55316;SDS011;41178;48.956;8.130;2023-04-24T02:53:56;3.30;;;2.40;;
55316;SDS011;41178;48.956;8.130;2023-04-24T02:58:58;2.10;;;2.00;;
55316;SDS011;41178;48.956;8.130;2023-04-24T03:03:59;2.13;;;2.03;;
55316;SDS011;41178;48.956;8.130;2023-04-24T03:09:01;2.10;;;1.83;;
55316;SDS011;41178;48.956;8.130;2023-04-24T03:14:04;3.50;;;2.27;;
55316;SDS011;41178;48.956;8.130;2023-04-24T03:19:06;3.43;;;2.40;;
55316;SDS011;41178;48.956;8.130;2023-04-24T03:24:08;2.77;;;2.57;;
55316;SDS011;41178;48.956;8.130;2023-04-24T03:29:10;2.57;;;2.37;;
55316;SDS011;41178;48.956;8.130;2023-04-24T03:34:12;2.70;;;2.50;;
55316;SDS011;41178;48.956;8.130;2023-04-24T03:39:14;2.57;;;2.37;;
55316;SDS011;41178;48.956;8.130;2023-04-24T03:44:15;2.50;;;2.30;;
55316;SDS011;41178;48.956;8.130;2023-04-24T03:49:17;2.67;;;2.47;;
55316;SDS011;41178;48.956;8.130;2023-04-24T03:54:19;3.97;;;2.30;;
55316;SDS011;41178;48.956;8.130;2023-04-24T03:59:21;3.50;;;2.70;;
55316;SDS011;41178;48.956;8.130;2023-04-24T04:04:22;3.10;;;2.80;;
55316;SDS011;41178;48.956;8.130;2023-04-24T04:09:24;2.77;;;2.53;;
55316;SDS011;41178;48.956;8.130;2023-04-24T04:14:27;4.10;;;3.10;;
55316;SDS011;41178;48.956;8.130;2023-04-24T04:19:28;3.60;;;3.20;;
55316;SDS011;41178;48.956;8.130;2023-04-24T04:24:30;2.83;;;2.63;;
55316;SDS011;41178;48.956;8.130;2023-04-24T04:29:32;2.97;;;2.77;;
55316;SDS011;41178;48.956;8.130;2023-04-24T04:34:34;2.67;;;2.47;;
55316;SDS011;41178;48.956;8.130;2023-04-24T04:39:35;2.77;;;2.30;;
55316;SDS011;41178;48.956;8.130;2023-04-24T04:44:37;2.90;;;2.70;;
55316;SDS011;41178;48.956;8.130;2023-04-24T04:49:39;2.43;;;2.27;;
55316;SDS011;41178;48.956;8.130;2023-04-24T04:54:42;7.43;;;3.00;;
55316;SDS011;41178;48.956;8.130;2023-04-24T04:59:44;3.80;;;3.37;;
55316;SDS011;41178;48.956;8.130;2023-04-24T05:04:46;3.63;;;3.23;;
55316;SDS011;41178;48.956;8.130;2023-04-24T05:09:48;7.77;;;3.10;;
55316;SDS011;41178;48.956;8.130;2023-04-24T05:14:50;2.97;;;2.67;;
55316;SDS011;41178;48.956;8.130;2023-04-24T05:19:51;2.50;;;2.40;;
55316;SDS011;41178;48.956;8.130;2023-04-24T05:24:53;2.90;;;2.60;;
55316;SDS011;41178;48.956;8.130;2023-04-24T05:29:55;2.83;;;2.57;;
55316;SDS011;41178;48.956;8.130;2023-04-24T05:34:56;4.30;;;2.83;;
55316;SDS011;41178;48.956;8.130;2023-04-24T05:39:58;3.03;;;2.80;;
55316;SDS011;41178;48.956;8.130;2023-04-24T05:45:00;3.80;;;3.07;;
55316;SDS011;41178;48.956;8.130;2023-04-24T05:50:01;3.67;;;2.63;;
55316;SDS011;41178;48.956;8.130;2023-04-24T05:55:04;4.00;;;2.90;;
55316;SDS011;41178;48.956;8.130;2023-04-24T06:00:06;3.37;;;3.07;;
55316;SDS011;41178;48.956;8.130;2023-04-24T06:05:09;3.20;;;2.90;;
55316;SDS011;41178;48.956;8.130;2023-04-24T06:10:11;3.20;;;3.00;;
55316;SDS011;41178;48.956;8.130;2023-04-24T06:15:12;3.53;;;3.07;;
55316;SDS011;41178;48.956;8.130;2023-04-24T06:20:14;3.70;;;3.20;;
55316;SDS011;41178;48.956;8.130;2023-04-24T06:25:16;3.53;;;3.23;;
55316;SDS011;41178;48.956;8.130;2023-04-24T06:30:18;7.77;;;3.30;;
55316;SDS011;41178;48.956;8.130;2023-04-24T06:35:19;4.17;;;3.60;;
55316;SDS011;41178;48.956;8.130;2023-04-24T06:40:21;3.67;;;3.00;;
55316;SDS011;41178;48.956;8.130;2023-04-24T06:45:23;3.03;;;2.83;;
55316;SDS011;41178;48.956;8.130;2023-04-24T06:50:25;4.03;;;3.60;;
55316;SDS011;41178;48.956;8.130;2023-04-24T06:55:27;3.40;;;3.10;;
55316;SDS011;41178;48.956;8.130;2023-04-24T07:00:29;3.80;;;3.37;;
55316;SDS011;41178;48.956;8.130;2023-04-24T07:05:31;3.17;;;2.87;;
55316;SDS011;41178;48.956;8.130;2023-04-24T07:10:35;3.83;;;2.53;;
55316;SDS011;41178;48.956;8.130;2023-04-24T07:15:37;3.87;;;2.30;;
55316;SDS011;41178;48.956;8.130;2023-04-24T07:20:38;2.60;;;2.40;;
55316;SDS011;41178;48.956;8.130;2023-04-24T07:25:40;2.63;;;2.43;;
55316;SDS011;41178;48.956;8.130;2023-04-24T07:30:42;3.90;;;2.63;;
55316;SDS011;41178;48.956;8.130;2023-04-24T07:35:44;2.70;;;2.50;;
55316;SDS011;41178;48.956;8.130;2023-04-24T07:40:45;2.87;;;2.60;;
55316;SDS011;41178;48.956;8.130;2023-04-24T07:45:49;3.00;;;2.80;;
55316;SDS011;41178;48.956;8.130;2023-04-24T07:50:52;2.73;;;2.53;;
55316;SDS011;41178;48.956;8.130;2023-04-24T07:55:55;2.63;;;2.40;;
55316;SDS011;41178;48.956;8.130;2023-04-24T08:00:57;2.90;;;2.57;;
55316;SDS011;41178;48.956;8.130;2023-04-24T08:05:59;2.90;;;2.57;;
55316;SDS011;41178;48.956;8.130;2023-04-24T08:11:01;3.40;;;3.10;;
55316;SDS011;41178;48.956;8.130;2023-04-24T08:16:03;2.83;;;2.63;;
55316;SDS011;41178;48.956;8.130;2023-04-24T08:21:04;3.30;;;2.60;;
55316;SDS011;41178;48.956;8.130;2023-04-24T08:26:06;5.43;;;3.50;;
55316;SDS011;41178;48.956;8.130;2023-04-24T08:31:08;3.20;;;2.90;;
55316;SDS011;41178;48.956;8.130;2023-04-24T08:36:10;3.00;;;2.77;;
55316;SDS011;41178;48.956;8.130;2023-04-24T08:41:12;6.53;;;4.17;;
55316;SDS011;41178;48.956;8.130;2023-04-24T08:46:16;4.70;;;3.23;;
55316;SDS011;41178;48.956;8.130;2023-04-24T08:51:18;4.13;;;3.50;;
55316;SDS011;41178;48.956;8.130;2023-04-24T08:56:21;4.17;;;2.90;;
55316;SDS011;41178;48.956;8.130;2023-04-24T09:01:24;5.23;;;3.73;;
55316;SDS011;41178;48.956;8.130;2023-04-24T09:06:26;5.77;;;3.87;;
55316;SDS011;41178;48.956;8.130;2023-04-24T09:11:30;4.37;;;3.97;;
55316;SDS011;41178;48.956;8.130;2023-04-24T09:16:33;5.80;;;3.33;;
55316;SDS011;41178;48.956;8.130;2023-04-24T09:21:37;4.00;;;3.60;;
55316;SDS011;41178;48.956;8.130;2023-04-24T09:26:38;6.23;;;3.83;;
55316;SDS011;41178;48.956;8.130;2023-04-24T09:31:40;4.50;;;3.50;;
55316;SDS011;41178;48.956;8.130;2023-04-24T09:36:42;4.53;;;3.77;;
55316;SDS011;41178;48.956;8.130;2023-04-24T09:41:51;5.50;;;4.27;;
55316;SDS011;41178;48.956;8.130;2023-04-24T09:47:01;4.53;;;3.53;;
55316;SDS011;41178;48.956;8.130;2023-04-24T09:52:09;4.50;;;4.10;;
55316;SDS011;41178;48.956;8.130;2023-04-24T09:57:14;2.83;;;2.57;;
55316;SDS011;41178;48.956;8.130;2023-04-24T10:02:19;11.43;;;3.40;;
55316;SDS011;41178;48.956;8.130;2023-04-24T10:07:21;3.97;;;3.20;;
55316;SDS011;41178;48.956;8.130;2023-04-24T10:12:27;3.33;;;2.87;;
55316;SDS011;41178;48.956;8.130;2023-04-24T10:17:30;3.80;;;3.40;;
55316;SDS011;41178;48.956;8.130;2023-04-24T10:22:32;4.00;;;3.60;;
55316;SDS011;41178;48.956;8.130;2023-04-24T10:27:35;4.03;;;3.43;;
55316;SDS011;41178;48.956;8.130;2023-04-24T10:32:37;6.00;;;3.57;;
55316;SDS011;41178;48.956;8.130;2023-04-24T10:37:44;6.00;;;4.27;;
55316;SDS011;41178;48.956;8.130;2023-04-24T10:42:51;4.17;;;3.40;;
55316;SDS011;41178;48.956;8.130;2023-04-24T10:47:59;5.70;;;3.80;;
55316;SDS011;41178;48.956;8.130;2023-04-24T10:53:06;5.83;;;3.60;;
55316;SDS011;41178;48.956;8.130;2023-04-24T10:58:13;6.07;;;4.00;;
55316;SDS011;41178;48.956;8.130;2023-04-24T11:06:32;4.90;;;3.87;;
55316;SDS011;41178;48.956;8.130;2023-04-24T11:11:37;5.00;;;4.47;;
55316;SDS011;41178;48.956;8.130;2023-04-24T11:16:45;6.13;;;5.43;;
55316;SDS011;41178;48.956;8.130;2023-04-24T11:27:18;4.77;;;4.37;;
55316;SDS011;41178;48.956;8.130;2023-04-24T11:37:26;5.23;;;4.30;;
55316;SDS011;41178;48.956;8.130;2023-04-24T11:42:33;4.43;;;3.80;;
55316;SDS011;41178;48.956;8.130;2023-04-24T11:47:53;4.40;;;3.70;;
55316;SDS011;41178;48.956;8.130;2023-04-24T11:52:55;5.67;;;4.43;;
55316;SDS011;41178;48.956;8.130;2023-04-24T11:57:58;4.60;;;3.90;;
55316;SDS011;41178;48.956;8.130;2023-04-24T12:08:10;5.67;;;5.07;;
55316;SDS011;41178;48.956;8.130;2023-04-24T12:13:11;5.17;;;4.57;;
55316;SDS011;41178;48.956;8.130;2023-04-24T12:18:14;7.00;;;5.30;;
55316;SDS011;41178;48.956;8.130;2023-04-24T12:23:33;5.23;;;4.07;;
55316;SDS011;41178;48.956;8.130;2023-04-24T12:28:37;4.20;;;3.80;;
55316;SDS011;41178;48.956;8.130;2023-04-24T12:33:40;5.00;;;4.43;;
55316;SDS011;41178;48.956;8.130;2023-04-24T12:38:43;5.23;;;4.30;;
55316;SDS011;41178;48.956;8.130;2023-04-24T12:43:53;4.33;;;3.43;;
55316;SDS011;41178;48.956;8.130;2023-04-24T12:48:56;4.40;;;4.00;;
55316;SDS011;41178;48.956;8.130;2023-04-24T12:53:59;4.20;;;3.80;;
55316;SDS011;41178;48.956;8.130;2023-04-24T12:59:01;5.17;;;4.37;;
55316;SDS011;41178;48.956;8.130;2023-04-24T13:04:03;4.47;;;4.07;;
55316;SDS011;41178;48.956;8.130;2023-04-24T13:09:05;5.00;;;4.50;;
55316;SDS011;41178;48.956;8.130;2023-04-24T13:14:06;3.43;;;3.13;;
55316;SDS011;41178;48.956;8.130;2023-04-24T13:19:08;5.97;;;4.17;;
55316;SDS011;41178;48.956;8.130;2023-04-24T13:24:10;5.67;;;4.20;;
55316;SDS011;41178;48.956;8.130;2023-04-24T13:29:11;3.73;;;3.43;;
55316;SDS011;41178;48.956;8.130;2023-04-24T13:34:13;6.80;;;4.03;;
55316;SDS011;41178;48.956;8.130;2023-04-24T13:39:15;5.60;;;3.90;;
55316;SDS011;41178;48.956;8.130;2023-04-24T13:44:18;4.03;;;3.63;;
55316;SDS011;41178;48.956;8.130;2023-04-24T13:49:21;3.90;;;3.43;;
55316;SDS011;41178;48.956;8.130;2023-04-24T13:54:26;4.73;;;3.70;;
55316;SDS011;41178;48.956;8.130;2023-04-24T13:59:27;5.60;;;4.10;;
55316;SDS011;41178;48.956;8.130;2023-04-24T14:04:29;5.27;;;4.43;;
55316;SDS011;41178;48.956;8.130;2023-04-24T14:09:31;4.67;;;4.17;;
55316;SDS011;41178;48.956;8.130;2023-04-24T14:14:32;5.57;;;3.70;;
55316;SDS011;41178;48.956;8.130;2023-04-24T14:19:34;4.97;;;3.70;;
55316;SDS011;41178;48.956;8.130;2023-04-24T14:24:35;4.30;;;3.90;;
55316;SDS011;41178;48.956;8.130;2023-04-24T14:29:37;3.90;;;3.50;;
55316;SDS011;41178;48.956;8.130;2023-04-24T14:34:39;3.50;;;3.20;;
55316;SDS011;41178;48.956;8.130;2023-04-24T14:39:40;4.50;;;3.10;;
55316;SDS011;41178;48.956;8.130;2023-04-24T14:44:43;3.20;;;2.90;;
55316;SDS011;41178;48.956;8.130;2023-04-24T14:49:45;3.33;;;3.03;;
55316;SDS011;41178;48.956;8.130;2023-04-24T14:54:48;3.07;;;2.73;;
55316;SDS011;41178;48.956;8.130;2023-04-24T15:05:30;3.97;;;3.07;;
55316;SDS011;41178;48.956;8.130;2023-04-24T15:10:32;5.63;;;3.67;;
55316;SDS011;41178;48.956;8.130;2023-04-24T15:15:34;3.77;;;3.47;;
55316;SDS011;41178;48.956;8.130;2023-04-24T15:20:36;3.63;;;3.33;;
55316;SDS011;41178;48.956;8.130;2023-04-24T15:25:40;3.30;;;2.93;;
55316;SDS011;41178;48.956;8.130;2023-04-24T15:30:41;3.20;;;2.90;;
55316;SDS011;41178;48.956;8.130;2023-04-24T15:35:43;4.17;;;3.43;;
55316;SDS011;41178;48.956;8.130;2023-04-24T15:40:44;4.67;;;3.10;;
55316;SDS011;41178;48.956;8.130;2023-04-24T15:45:46;3.20;;;2.60;;
55316;SDS011;41178;48.956;8.130;2023-04-24T15:50:48;3.90;;;3.50;;
55316;SDS011;41178;48.956;8.130;2023-04-24T15:55:50;6.50;;;3.93;;
55316;SDS011;41178;48.956;8.130;2023-04-24T16:00:53;4.70;;;3.90;;
55316;SDS011;41178;48.956;8.130;2023-04-24T16:05:54;5.37;;;4.00;;
55316;SDS011;41178;48.956;8.130;2023-04-24T16:10:56;4.27;;;3.10;;
55316;SDS011;41178;48.956;8.130;2023-04-24T16:15:57;3.50;;;3.20;;
55316;SDS011;41178;48.956;8.130;2023-04-24T16:20:59;3.70;;;3.40;;
55316;SDS011;41178;48.956;8.130;2023-04-24T16:26:01;4.23;;;3.77;;
55316;SDS011;41178;48.956;8.130;2023-04-24T16:31:02;3.80;;;3.47;;
55316;SDS011;41178;48.956;8.130;2023-04-24T16:36:04;5.03;;;4.33;;
55316;SDS011;41178;48.956;8.130;2023-04-24T16:41:07;3.63;;;3.30;;
55316;SDS011;41178;48.956;8.130;2023-04-24T16:46:09;4.27;;;3.83;;
55316;SDS011;41178;48.956;8.130;2023-04-24T16:51:11;4.17;;;3.40;;
55316;SDS011;41178;48.956;8.130;2023-04-24T16:56:13;4.37;;;3.97;;
55316;SDS011;41178;48.956;8.130;2023-04-24T17:01:15;4.53;;;4.00;;
55316;SDS011;41178;48.956;8.130;2023-04-24T17:06:17;4.57;;;3.70;;
55316;SDS011;41178;48.956;8.130;2023-04-24T17:11:19;4.67;;;4.07;;
55316;SDS011;41178;48.956;8.130;2023-04-24T17:16:21;3.57;;;3.27;;
55316;SDS011;41178;48.956;8.130;2023-04-24T17:21:23;4.53;;;3.93;;
55316;SDS011;41178;48.956;8.130;2023-04-24T17:26:24;5.80;;;4.40;;
55316;SDS011;41178;48.956;8.130;2023-04-24T17:31:26;6.43;;;4.20;;
55316;SDS011;41178;48.956;8.130;2023-04-24T17:36:28;3.70;;;3.30;;
55316;SDS011;41178;48.956;8.130;2023-04-24T17:41:30;5.73;;;3.93;;
55316;SDS011;41178;48.956;8.130;2023-04-24T17:46:31;4.20;;;3.80;;
55316;SDS011;41178;48.956;8.130;2023-04-24T17:51:33;3.70;;;3.40;;
55316;SDS011;41178;48.956;8.130;2023-04-24T17:56:35;4.00;;;3.60;;
55316;SDS011;41178;48.956;8.130;2023-04-24T18:01:36;3.83;;;3.43;;
55316;SDS011;41178;48.956;8.130;2023-04-24T18:06:38;4.50;;;4.10;;
55316;SDS011;41178;48.956;8.130;2023-04-24T18:11:40;6.67;;;4.80;;
55316;SDS011;41178;48.956;8.130;2023-04-24T18:16:43;5.47;;;4.60;;
55316;SDS011;41178;48.956;8.130;2023-04-24T18:21:44;7.70;;;4.83;;
55316;SDS011;41178;48.956;8.130;2023-04-24T18:26:46;4.10;;;3.70;;
55316;SDS011;41178;48.956;8.130;2023-04-24T18:31:47;4.73;;;3.50;;
55316;SDS011;41178;48.956;8.130;2023-04-24T18:36:49;5.43;;;3.90;;
55316;SDS011;41178;48.956;8.130;2023-04-24T18:41:51;5.63;;;4.00;;
55316;SDS011;41178;48.956;8.130;2023-04-24T18:46:53;5.03;;;3.47;;
55316;SDS011;41178;48.956;8.130;2023-04-24T18:51:54;4.40;;;4.00;;
55316;SDS011;41178;48.956;8.130;2023-04-24T18:56:56;6.30;;;5.17;;
55316;SDS011;41178;48.956;8.130;2023-04-24T19:01:57;4.07;;;3.60;;
55316;SDS011;41178;48.956;8.130;2023-04-24T19:06:59;5.70;;;4.60;;
55316;SDS011;41178;48.956;8.130;2023-04-24T19:12:01;4.83;;;4.33;;
55316;SDS011;41178;48.956;8.130;2023-04-24T19:17:02;4.90;;;4.07;;
55316;SDS011;41178;48.956;8.130;2023-04-24T19:22:04;4.67;;;4.20;;
55316;SDS011;41178;48.956;8.130;2023-04-24T19:27:07;5.43;;;3.97;;
55316;SDS011;41178;48.956;8.130;2023-04-24T19:32:09;5.37;;;4.03;;
55316;SDS011;41178;48.956;8.130;2023-04-24T19:37:11;4.50;;;3.73;;
55316;SDS011;41178;48.956;8.130;2023-04-24T19:42:13;6.23;;;4.70;;
55316;SDS011;41178;48.956;8.130;2023-04-24T19:47:15;5.50;;;4.50;;
55316;SDS011;41178;48.956;8.130;2023-04-24T19:52:16;4.80;;;4.00;;
55316;SDS011;41178;48.956;8.130;2023-04-24T19:57:18;4.33;;;3.93;;
55316;SDS011;41178;48.956;8.130;2023-04-24T20:02:19;3.90;;;3.60;;
55316;SDS011;41178;48.956;8.130;2023-04-24T20:07:21;4.67;;;4.23;;
55316;SDS011;41178;48.956;8.130;2023-04-24T20:12:23;4.30;;;3.90;;
55316;SDS011;41178;48.956;8.130;2023-04-24T20:17:24;4.27;;;3.83;;
55316;SDS011;41178;48.956;8.130;2023-04-24T20:22:26;4.07;;;3.70;;
55316;SDS011;41178;48.956;8.130;2023-04-24T20:27:28;3.83;;;3.40;;
55316;SDS011;41178;48.956;8.130;2023-04-24T20:32:30;4.70;;;3.67;;
55316;SDS011;41178;48.956;8.130;2023-04-24T20:37:32;5.37;;;4.27;;
55316;SDS011;41178;48.956;8.130;2023-04-24T20:42:34;5.33;;;4.17;;
55316;SDS011;41178;48.956;8.130;2023-04-24T20:47:36;4.03;;;3.63;;
55316;SDS011;41178;48.956;8.130;2023-04-24T20:52:38;3.70;;;3.40;;
55316;SDS011;41178;48.956;8.130;2023-04-24T20:57:40;5.73;;;3.60;;
55316;SDS011;41178;48.956;8.130;2023-04-24T21:02:41;4.03;;;3.60;;
55316;SDS011;41178;48.956;8.130;2023-04-24T21:07:43;3.80;;;3.40;;
55316;SDS011;41178;48.956;8.130;2023-04-24T21:12:45;3.57;;;3.27;;
55316;SDS011;41178;48.956;8.130;2023-04-24T21:17:46;2.93;;;2.73;;
55316;SDS011;41178;48.956;8.130;2023-04-24T21:22:48;5.87;;;3.80;;
55316;SDS011;41178;48.956;8.130;2023-04-24T21:27:50;4.13;;;2.90;;
55316;SDS011;41178;48.956;8.130;2023-04-24T21:32:51;3.40;;;3.10;;
55316;SDS011;41178;48.956;8.130;2023-04-24T21:37:53;3.83;;;3.47;;
55316;SDS011;41178;48.956;8.130;2023-04-24T21:42:55;3.73;;;3.37;;
55316;SDS011;41178;48.956;8.130;2023-04-24T21:47:56;3.50;;;3.20;;
55316;SDS011;41178;48.956;8.130;2023-04-24T21:53:00;4.27;;;3.40;;
55316;SDS011;41178;48.956;8.130;2023-04-24T21:58:01;4.27;;;3.63;;
55316;SDS011;41178;48.956;8.130;2023-04-24T22:03:03;4.37;;;3.83;;
55316;SDS011;41178;48.956;8.130;2023-04-24T22:08:05;5.57;;;4.47;;
55316;SDS011;41178;48.956;8.130;2023-04-24T22:13:07;4.87;;;3.87;;
55316;SDS011;41178;48.956;8.130;2023-04-24T22:18:09;4.37;;;3.90;;
55316;SDS011;41178;48.956;8.130;2023-04-24T22:23:12;6.87;;;3.67;;
55316;SDS011;41178;48.956;8.130;2023-04-24T22:28:13;5.13;;;3.83;;
55316;SDS011;41178;48.956;8.130;2023-04-24T22:33:15;4.60;;;3.90;;
55316;SDS011;41178;48.956;8.130;2023-04-24T22:38:16;5.07;;;4.00;;
55316;SDS011;41178;48.956;8.130;2023-04-24T22:43:18;4.53;;;4.00;;
55316;SDS011;41178;48.956;8.130;2023-04-24T22:48:20;6.47;;;4.57;;
55316;SDS011;41178;48.956;8.130;2023-04-24T22:53:21;6.33;;;5.00;;
55316;SDS011;41178;48.956;8.130;2023-04-24T22:58:23;9.27;;;5.17;;
55316;SDS011;41178;48.956;8.130;2023-04-24T23:03:25;8.53;;;5.57;;
55316;SDS011;41178;48.956;8.130;2023-04-24T23:08:27;7.83;;;5.53;;
55316;SDS011;41178;48.956;8.130;2023-04-24T23:13:30;7.67;;;5.97;;
55316;SDS011;41178;48.956;8.130;2023-04-24T23:18:32;5.27;;;4.13;;
55316;SDS011;41178;48.956;8.130;2023-04-24T23:23:34;5.13;;;4.00;;
55316;SDS011;41178;48.956;8.130;2023-04-24T23:28:35;4.07;;;3.77;;
55316;SDS011;41178;48.956;8.130;2023-04-24T23:33:39;5.70;;;4.10;;
55316;SDS011;41178;48.956;8.130;2023-04-24T23:38:41;5.77;;;4.20;;
55316;SDS011;41178;48.956;8.130;2023-04-24T23:43:50;4.40;;;4.00;;
55316;SDS011;41178;48.956;8.130;2023-04-24T23:48:52;4.57;;;4.00;;
55316;SDS011;41178;48.956;8.130;2023-04-24T23:53:54;4.77;;;3.83;;
55316;SDS011;41178;48.956;8.130;2023-04-24T23:58:56;4.73;;;3.90;;
